sensor_id;sensor_type;location;lat;lon;timestamp;temperature;humidity
22288;DHT22;11312;51.464;6.968;2023-10-19T00:01:20;12.90;99.90
22288;DHT22;11312;51.464;6.968;2023-10-19T00:03:49;13.00;99.90
22288;DHT22;11312;51.464;6.968;2023-10-19T00:06:15;13.00;99.90
22288;DHT22;11312;51.464;6.968;2023-10-19T00:08:43;13.00;99.90
22288;DHT22;11312;51.464;6.968;2023-10-19T00:11:10;13.10;99.90
22288;DHT22;11312;51.464;6.968;2023-10-19T00:13:38;13.00;99.90
22288;DHT22;11312;51.464;6.968;2023-10-19T00:16:08;13.00;99.90
22288;DHT22;11312;51.464;6.968;2023-10-19T00:18:54;13.00;99.90
22288;DHT22;11312;51.464;6.968;2023-10-19T00:21:24;13.00;99.90
22288;DHT22;11312;51.464;6.968;2023-10-19T00:23:53;13.00;99.90
22288;DHT22;11312;51.464;6.968;2023-10-19T00:26:22;13.10;99.90
22288;DHT22;11312;51.464;6.968;2023-10-19T00:28:51;13.10;99.90
22288;DHT22;11312;51.464;6.968;2023-10-19T00:31:24;13.00;99.90
22288;DHT22;11312;51.464;6.968;2023-10-19T00:33:52;13.10;99.90
22288;DHT22;11312;51.464;6.968;2023-10-19T00:36:20;13.10;99.90
22288;DHT22;11312;51.464;6.968;2023-10-19T00:38:47;13.10;99.90
22288;DHT22;11312;51.464;6.968;2023-10-19T00:41:17;13.10;99.90
22288;DHT22;11312;51.464;6.968;2023-10-19T00:43:48;13.10;99.90
22288;DHT22;11312;51.464;6.968;2023-10-19T00:46:23;13.20;99.90
22288;DHT22;11312;51.464;6.968;2023-10-19T00:48:54;13.30;99.90
22288;DHT22;11312;51.464;6.968;2023-10-19T00:51:22;13.30;99.90
22288;DHT22;11312;51.464;6.968;2023-10-19T00:53:53;13.40;99.90
22288;DHT22;11312;51.464;6.968;2023-10-19T00:56:20;13.40;99.90
22288;DHT22;11312;51.464;6.968;2023-10-19T00:58:52;13.40;99.90
22288;DHT22;11312;51.464;6.968;2023-10-19T01:01:28;13.40;99.90
22288;DHT22;11312;51.464;6.968;2023-10-19T01:03:54;13.40;99.90
22288;DHT22;11312;51.464;6.968;2023-10-19T01:06:23;13.40;99.90
22288;DHT22;11312;51.464;6.968;2023-10-19T01:08:48;13.40;99.90
22288;DHT22;11312;51.464;6.968;2023-10-19T01:11:17;13.40;99.90
22288;DHT22;11312;51.464;6.968;2023-10-19T01:13:46;13.40;99.90
22288;DHT22;11312;51.464;6.968;2023-10-19T01:16:14;13.40;99.90
22288;DHT22;11312;51.464;6.968;2023-10-19T01:18:50;13.40;99.90
22288;DHT22;11312;51.464;6.968;2023-10-19T01:21:22;13.40;99.90
22288;DHT22;11312;51.464;6.968;2023-10-19T01:23:50;13.40;99.90
22288;DHT22;11312;51.464;6.968;2023-10-19T01:26:16;13.50;99.90
22288;DHT22;11312;51.464;6.968;2023-10-19T01:28:47;13.60;99.90
22288;DHT22;11312;51.464;6.968;2023-10-19T01:31:19;13.50;99.90
22288;DHT22;11312;51.464;6.968;2023-10-19T01:33:48;13.60;99.90
22288;DHT22;11312;51.464;6.968;2023-10-19T01:36:14;13.60;99.90
22288;DHT22;11312;51.464;6.968;2023-10-19T01:38:50;13.60;99.90
22288;DHT22;11312;51.464;6.968;2023-10-19T01:41:20;13.70;99.90
22288;DHT22;11312;51.464;6.968;2023-10-19T01:43:48;13.60;99.90
22288;DHT22;11312;51.464;6.968;2023-10-19T01:46:15;13.60;99.90
22288;DHT22;11312;51.464;6.968;2023-10-19T01:48:49;13.70;99.90
22288;DHT22;11312;51.464;6.968;2023-10-19T01:51:19;13.70;99.90
22288;DHT22;11312;51.464;6.968;2023-10-19T01:53:46;13.70;99.90
22288;DHT22;11312;51.464;6.968;2023-10-19T01:56:13;13.70;99.90
22288;DHT22;11312;51.464;6.968;2023-10-19T01:58:41;13.70;99.90
22288;DHT22;11312;51.464;6.968;2023-10-19T02:01:07;13.70;99.90
22288;DHT22;11312;51.464;6.968;2023-10-19T02:03:44;13.80;99.90
22288;DHT22;11312;51.464;6.968;2023-10-19T02:06:11;13.80;99.90
22288;DHT22;11312;51.464;6.968;2023-10-19T02:08:40;13.80;99.90
22288;DHT22;11312;51.464;6.968;2023-10-19T02:11:06;13.80;99.90
22288;DHT22;11312;51.464;6.968;2023-10-19T02:13:42;13.90;99.90
22288;DHT22;11312;51.464;6.968;2023-10-19T02:16:09;13.90;99.90
22288;DHT22;11312;51.464;6.968;2023-10-19T02:18:34;13.90;99.90
22288;DHT22;11312;51.464;6.968;2023-10-19T02:21:01;13.80;99.90
22288;DHT22;11312;51.464;6.968;2023-10-19T02:23:31;13.90;99.90
22288;DHT22;11312;51.464;6.968;2023-10-19T02:25:57;13.90;99.90
22288;DHT22;11312;51.464;6.968;2023-10-19T02:28:23;13.90;99.90
22288;DHT22;11312;51.464;6.968;2023-10-19T02:30:55;14.00;99.90
22288;DHT22;11312;51.464;6.968;2023-10-19T02:33:20;14.00;99.90
22288;DHT22;11312;51.464;6.968;2023-10-19T02:35:46;13.90;99.90
22288;DHT22;11312;51.464;6.968;2023-10-19T02:38:13;14.00;99.90
22288;DHT22;11312;51.464;6.968;2023-10-19T02:40:39;14.10;99.90
22288;DHT22;11312;51.464;6.968;2023-10-19T02:43:05;14.30;99.90
22288;DHT22;11312;51.464;6.968;2023-10-19T02:45:31;14.10;99.90
22288;DHT22;11312;51.464;6.968;2023-10-19T02:47:58;14.10;99.90
22288;DHT22;11312;51.464;6.968;2023-10-19T02:50:24;14.10;99.90
22288;DHT22;11312;51.464;6.968;2023-10-19T02:52:52;14.20;99.90
22288;DHT22;11312;51.464;6.968;2023-10-19T02:55:18;14.10;99.90
22288;DHT22;11312;51.464;6.968;2023-10-19T02:57:48;14.10;99.90
22288;DHT22;11312;51.464;6.968;2023-10-19T03:00:15;14.20;99.90
22288;DHT22;11312;51.464;6.968;2023-10-19T03:02:46;14.10;99.90
22288;DHT22;11312;51.464;6.968;2023-10-19T03:05:12;14.20;99.90
22288;DHT22;11312;51.464;6.968;2023-10-19T03:07:42;14.20;99.90
22288;DHT22;11312;51.464;6.968;2023-10-19T03:10:11;14.20;99.90
22288;DHT22;11312;51.464;6.968;2023-10-19T03:12:50;14.30;99.90
22288;DHT22;11312;51.464;6.968;2023-10-19T03:15:16;14.10;99.90
22288;DHT22;11312;51.464;6.968;2023-10-19T03:17:43;14.20;99.90
22288;DHT22;11312;51.464;6.968;2023-10-19T03:20:08;14.20;99.90
22288;DHT22;11312;51.464;6.968;2023-10-19T03:22:36;14.20;99.90
22288;DHT22;11312;51.464;6.968;2023-10-19T03:25:05;14.20;99.90
22288;DHT22;11312;51.464;6.968;2023-10-19T03:27:49;14.30;99.90
22288;DHT22;11312;51.464;6.968;2023-10-19T03:30:15;14.30;99.90
22288;DHT22;11312;51.464;6.968;2023-10-19T03:32:43;14.30;99.90
22288;DHT22;11312;51.464;6.968;2023-10-19T03:35:09;14.30;99.90
22288;DHT22;11312;51.464;6.968;2023-10-19T03:37:40;14.40;99.90
22288;DHT22;11312;51.464;6.968;2023-10-19T03:40:07;14.40;99.90
22288;DHT22;11312;51.464;6.968;2023-10-19T03:42:41;14.50;99.90
22288;DHT22;11312;51.464;6.968;2023-10-19T03:45:08;14.40;99.90
22288;DHT22;11312;51.464;6.968;2023-10-19T03:47:39;14.40;99.90
22288;DHT22;11312;51.464;6.968;2023-10-19T03:50:09;14.40;99.90
22288;DHT22;11312;51.464;6.968;2023-10-19T03:52:45;14.40;99.90
22288;DHT22;11312;51.464;6.968;2023-10-19T03:55:11;14.40;99.90
22288;DHT22;11312;51.464;6.968;2023-10-19T03:57:38;14.40;99.90
22288;DHT22;11312;51.464;6.968;2023-10-19T04:00:08;14.40;99.90
22288;DHT22;11312;51.464;6.968;2023-10-19T04:02:44;14.30;99.90
22288;DHT22;11312;51.464;6.968;2023-10-19T04:05:09;14.50;99.90
22288;DHT22;11312;51.464;6.968;2023-10-19T04:07:45;14.40;99.90
22288;DHT22;11312;51.464;6.968;2023-10-19T04:10:11;14.40;99.90
22288;DHT22;11312;51.464;6.968;2023-10-19T04:12:55;14.40;99.90
22288;DHT22;11312;51.464;6.968;2023-10-19T04:15:20;14.50;99.90
22288;DHT22;11312;51.464;6.968;2023-10-19T04:17:48;14.50;99.90
22288;DHT22;11312;51.464;6.968;2023-10-19T04:20:18;14.40;99.90
22288;DHT22;11312;51.464;6.968;2023-10-19T04:22:44;14.60;99.90
22288;DHT22;11312;51.464;6.968;2023-10-19T04:25:10;14.50;99.90
22288;DHT22;11312;51.464;6.968;2023-10-19T04:27:38;14.50;99.90
22288;DHT22;11312;51.464;6.968;2023-10-19T04:30:05;14.60;99.90
22288;DHT22;11312;51.464;6.968;2023-10-19T04:32:41;14.40;99.90
22288;DHT22;11312;51.464;6.968;2023-10-19T04:35:07;14.40;99.90
22288;DHT22;11312;51.464;6.968;2023-10-19T04:37:35;14.40;99.90
22288;DHT22;11312;51.464;6.968;2023-10-19T04:40:00;14.40;99.90
22288;DHT22;11312;51.464;6.968;2023-10-19T04:42:26;14.30;99.90
22288;DHT22;11312;51.464;6.968;2023-10-19T04:44:55;14.30;99.90
22288;DHT22;11312;51.464;6.968;2023-10-19T04:47:21;14.30;99.90
22288;DHT22;11312;51.464;6.968;2023-10-19T04:49:47;14.30;99.90
22288;DHT22;11312;51.464;6.968;2023-10-19T04:52:13;14.30;99.90
22288;DHT22;11312;51.464;6.968;2023-10-19T04:54:38;14.30;99.90
22288;DHT22;11312;51.464;6.968;2023-10-19T04:57:04;14.30;99.90
22288;DHT22;11312;51.464;6.968;2023-10-19T04:59:30;14.40;99.90
22288;DHT22;11312;51.464;6.968;2023-10-19T05:01:59;14.30;99.90
22288;DHT22;11312;51.464;6.968;2023-10-19T05:04:27;14.40;99.90
22288;DHT22;11312;51.464;6.968;2023-10-19T05:06:53;14.30;99.90
22288;DHT22;11312;51.464;6.968;2023-10-19T05:09:19;14.30;99.90
22288;DHT22;11312;51.464;6.968;2023-10-19T05:11:44;14.30;99.90
22288;DHT22;11312;51.464;6.968;2023-10-19T05:14:14;14.20;99.90
22288;DHT22;11312;51.464;6.968;2023-10-19T05:16:40;14.20;99.90
22288;DHT22;11312;51.464;6.968;2023-10-19T05:19:06;14.20;99.90
22288;DHT22;11312;51.464;6.968;2023-10-19T05:21:32;14.30;99.90
22288;DHT22;11312;51.464;6.968;2023-10-19T05:23:59;14.30;99.90
22288;DHT22;11312;51.464;6.968;2023-10-19T05:26:28;14.30;99.90
22288;DHT22;11312;51.464;6.968;2023-10-19T05:28:54;14.30;99.90
22288;DHT22;11312;51.464;6.968;2023-10-19T05:31:20;14.30;99.90
22288;DHT22;11312;51.464;6.968;2023-10-19T05:33:46;14.20;99.90
22288;DHT22;11312;51.464;6.968;2023-10-19T05:36:14;14.30;99.90
22288;DHT22;11312;51.464;6.968;2023-10-19T05:38:40;14.30;99.90
22288;DHT22;11312;51.464;6.968;2023-10-19T05:41:06;14.20;99.90
22288;DHT22;11312;51.464;6.968;2023-10-19T05:43:33;14.40;99.90
22288;DHT22;11312;51.464;6.968;2023-10-19T05:46:00;14.40;99.90
22288;DHT22;11312;51.464;6.968;2023-10-19T05:48:26;14.30;99.90
22288;DHT22;11312;51.464;6.968;2023-10-19T05:50:52;14.20;99.90
22288;DHT22;11312;51.464;6.968;2023-10-19T05:53:17;14.20;99.90
22288;DHT22;11312;51.464;6.968;2023-10-19T05:55:50;14.20;99.90
22288;DHT22;11312;51.464;6.968;2023-10-19T05:58:16;14.20;99.90
22288;DHT22;11312;51.464;6.968;2023-10-19T06:00:42;14.20;99.90
22288;DHT22;11312;51.464;6.968;2023-10-19T06:03:08;14.10;99.90
22288;DHT22;11312;51.464;6.968;2023-10-19T06:05:33;14.10;99.90
22288;DHT22;11312;51.464;6.968;2023-10-19T06:07:59;14.20;99.90
22288;DHT22;11312;51.464;6.968;2023-10-19T06:10:27;14.20;99.90
22288;DHT22;11312;51.464;6.968;2023-10-19T06:12:53;14.30;99.90
22288;DHT22;11312;51.464;6.968;2023-10-19T06:15:21;14.20;99.90
22288;DHT22;11312;51.464;6.968;2023-10-19T06:17:47;14.30;99.90
22288;DHT22;11312;51.464;6.968;2023-10-19T06:20:15;14.20;99.90
22288;DHT22;11312;51.464;6.968;2023-10-19T06:22:55;14.20;99.90
22288;DHT22;11312;51.464;6.968;2023-10-19T06:25:22;14.20;99.90
22288;DHT22;11312;51.464;6.968;2023-10-19T06:27:48;14.20;99.90
22288;DHT22;11312;51.464;6.968;2023-10-19T06:30:15;14.20;99.90
22288;DHT22;11312;51.464;6.968;2023-10-19T06:32:54;14.20;99.90
22288;DHT22;11312;51.464;6.968;2023-10-19T06:35:21;14.30;99.90
22288;DHT22;11312;51.464;6.968;2023-10-19T06:37:47;14.40;99.90
22288;DHT22;11312;51.464;6.968;2023-10-19T06:40:14;14.30;99.90
22288;DHT22;11312;51.464;6.968;2023-10-19T06:42:44;14.30;99.90
22288;DHT22;11312;51.464;6.968;2023-10-19T06:45:14;14.40;99.90
22288;DHT22;11312;51.464;6.968;2023-10-19T06:47:44;14.40;99.90
22288;DHT22;11312;51.464;6.968;2023-10-19T06:50:14;14.40;99.90
22288;DHT22;11312;51.464;6.968;2023-10-19T06:52:42;14.30;99.90
22288;DHT22;11312;51.464;6.968;2023-10-19T06:55:09;14.30;99.90
22288;DHT22;11312;51.464;6.968;2023-10-19T06:57:52;14.30;99.90
22288;DHT22;11312;51.464;6.968;2023-10-19T07:00:20;14.40;99.90
22288;DHT22;11312;51.464;6.968;2023-10-19T07:02:49;14.40;99.90
22288;DHT22;11312;51.464;6.968;2023-10-19T07:05:19;14.40;99.90
22288;DHT22;11312;51.464;6.968;2023-10-19T07:07:50;14.50;99.90
22288;DHT22;11312;51.464;6.968;2023-10-19T07:10:18;14.50;99.90
22288;DHT22;11312;51.464;6.968;2023-10-19T07:12:50;14.60;99.90
22288;DHT22;11312;51.464;6.968;2023-10-19T07:15:16;14.60;99.90
22288;DHT22;11312;51.464;6.968;2023-10-19T07:17:45;14.70;99.90
22288;DHT22;11312;51.464;6.968;2023-10-19T07:20:13;14.70;99.90
22288;DHT22;11312;51.464;6.968;2023-10-19T07:22:56;14.80;99.90
22288;DHT22;11312;51.464;6.968;2023-10-19T07:25:23;14.80;99.90
22288;DHT22;11312;51.464;6.968;2023-10-19T07:27:54;14.80;99.90
22288;DHT22;11312;51.464;6.968;2023-10-19T07:30:20;14.90;99.90
22288;DHT22;11312;51.464;6.968;2023-10-19T07:32:49;14.80;99.90
22288;DHT22;11312;51.464;6.968;2023-10-19T07:35:19;14.80;99.90
22288;DHT22;11312;51.464;6.968;2023-10-19T07:37:45;14.80;99.90
22288;DHT22;11312;51.464;6.968;2023-10-19T07:40:11;14.80;99.90
22288;DHT22;11312;51.464;6.968;2023-10-19T07:42:40;14.80;99.90
22288;DHT22;11312;51.464;6.968;2023-10-19T07:45:06;14.80;99.90
22288;DHT22;11312;51.464;6.968;2023-10-19T07:47:38;14.90;99.90
22288;DHT22;11312;51.464;6.968;2023-10-19T07:50:12;14.90;99.90
22288;DHT22;11312;51.464;6.968;2023-10-19T07:52:45;14.90;99.90
22288;DHT22;11312;51.464;6.968;2023-10-19T07:55:12;15.00;99.90
22288;DHT22;11312;51.464;6.968;2023-10-19T07:57:38;15.00;99.90
22288;DHT22;11312;51.464;6.968;2023-10-19T08:00:07;14.90;99.90
22288;DHT22;11312;51.464;6.968;2023-10-19T08:02:36;15.00;99.90
22288;DHT22;11312;51.464;6.968;2023-10-19T08:05:04;15.10;99.90
22288;DHT22;11312;51.464;6.968;2023-10-19T08:07:29;15.00;99.90
22288;DHT22;11312;51.464;6.968;2023-10-19T08:09:55;15.00;99.90
22288;DHT22;11312;51.464;6.968;2023-10-19T08:12:25;15.00;99.90
22288;DHT22;11312;51.464;6.968;2023-10-19T08:14:55;15.00;99.90
22288;DHT22;11312;51.464;6.968;2023-10-19T08:17:21;15.00;99.90
22288;DHT22;11312;51.464;6.968;2023-10-19T08:19:47;15.00;99.90
22288;DHT22;11312;51.464;6.968;2023-10-19T08:22:12;15.10;99.90
22288;DHT22;11312;51.464;6.968;2023-10-19T08:24:40;15.10;99.90
22288;DHT22;11312;51.464;6.968;2023-10-19T08:27:09;15.30;99.90
22288;DHT22;11312;51.464;6.968;2023-10-19T08:29:36;15.30;99.90
22288;DHT22;11312;51.464;6.968;2023-10-19T08:32:02;15.30;99.90
22288;DHT22;11312;51.464;6.968;2023-10-19T08:34:28;15.30;99.90
22288;DHT22;11312;51.464;6.968;2023-10-19T08:36:55;15.30;99.90
22288;DHT22;11312;51.464;6.968;2023-10-19T08:39:21;15.40;99.90
22288;DHT22;11312;51.464;6.968;2023-10-19T08:41:49;15.40;99.90
22288;DHT22;11312;51.464;6.968;2023-10-19T08:44:19;15.50;99.90
22288;DHT22;11312;51.464;6.968;2023-10-19T08:46:45;15.50;99.90
22288;DHT22;11312;51.464;6.968;2023-10-19T08:49:14;15.60;99.90
22288;DHT22;11312;51.464;6.968;2023-10-19T08:51:43;15.60;99.90
22288;DHT22;11312;51.464;6.968;2023-10-19T08:54:11;15.80;99.90
22288;DHT22;11312;51.464;6.968;2023-10-19T08:56:41;15.80;99.90
22288;DHT22;11312;51.464;6.968;2023-10-19T08:59:08;15.90;99.90
22288;DHT22;11312;51.464;6.968;2023-10-19T09:01:36;16.00;99.90
22288;DHT22;11312;51.464;6.968;2023-10-19T09:04:02;16.00;99.90
22288;DHT22;11312;51.464;6.968;2023-10-19T09:06:27;16.10;99.90
22288;DHT22;11312;51.464;6.968;2023-10-19T09:08:55;16.10;99.90
22288;DHT22;11312;51.464;6.968;2023-10-19T09:11:27;16.10;99.90
22288;DHT22;11312;51.464;6.968;2023-10-19T09:13:53;16.10;99.90
22288;DHT22;11312;51.464;6.968;2023-10-19T09:16:22;16.20;99.90
22288;DHT22;11312;51.464;6.968;2023-10-19T09:18:49;16.20;99.90
22288;DHT22;11312;51.464;6.968;2023-10-19T09:21:19;16.30;99.90
22288;DHT22;11312;51.464;6.968;2023-10-19T09:23:57;16.40;99.90
22288;DHT22;11312;51.464;6.968;2023-10-19T09:26:24;16.40;99.90
22288;DHT22;11312;51.464;6.968;2023-10-19T09:28:52;16.50;99.90
22288;DHT22;11312;51.464;6.968;2023-10-19T09:31:18;16.60;99.90
22288;DHT22;11312;51.464;6.968;2023-10-19T09:33:47;16.70;99.90
22288;DHT22;11312;51.464;6.968;2023-10-19T09:36:15;16.70;99.90
22288;DHT22;11312;51.464;6.968;2023-10-19T09:41:12;16.90;99.90
22288;DHT22;11312;51.464;6.968;2023-10-19T09:43:43;16.90;99.90
22288;DHT22;11312;51.464;6.968;2023-10-19T09:46:10;17.00;99.90
22288;DHT22;11312;51.464;6.968;2023-10-19T09:48:41;17.10;99.90
22288;DHT22;11312;51.464;6.968;2023-10-19T09:51:08;17.10;99.90
22288;DHT22;11312;51.464;6.968;2023-10-19T09:53:34;17.10;99.90
22288;DHT22;11312;51.464;6.968;2023-10-19T09:56:02;17.00;99.90
22288;DHT22;11312;51.464;6.968;2023-10-19T09:58:36;17.10;99.90
22288;DHT22;11312;51.464;6.968;2023-10-19T10:01:03;17.10;99.90
22288;DHT22;11312;51.464;6.968;2023-10-19T10:03:43;17.20;99.90
22288;DHT22;11312;51.464;6.968;2023-10-19T10:06:11;17.10;99.90
22288;DHT22;11312;51.464;6.968;2023-10-19T10:08:38;17.10;99.90
22288;DHT22;11312;51.464;6.968;2023-10-19T10:11:22;17.10;99.90
22288;DHT22;11312;51.464;6.968;2023-10-19T10:13:49;17.10;99.90
22288;DHT22;11312;51.464;6.968;2023-10-19T10:16:26;17.50;99.90
22288;DHT22;11312;51.464;6.968;2023-10-19T10:18:59;17.70;99.90
22288;DHT22;11312;51.464;6.968;2023-10-19T10:21:26;18.20;99.90
22288;DHT22;11312;51.464;6.968;2023-10-19T10:23:53;18.30;99.90
22288;DHT22;11312;51.464;6.968;2023-10-19T10:26:21;18.60;99.90
22288;DHT22;11312;51.464;6.968;2023-10-19T10:31:40;18.80;99.90
22288;DHT22;11312;51.464;6.968;2023-10-19T10:34:08;18.70;99.90
22288;DHT22;11312;51.464;6.968;2023-10-19T10:37:00;18.50;99.90
22288;DHT22;11312;51.464;6.968;2023-10-19T10:39:28;18.40;99.90
22288;DHT22;11312;51.464;6.968;2023-10-19T10:41:59;18.80;99.90
22288;DHT22;11312;51.464;6.968;2023-10-19T10:44:46;19.00;99.90
22288;DHT22;11312;51.464;6.968;2023-10-19T10:47:19;19.90;99.90
22288;DHT22;11312;51.464;6.968;2023-10-19T10:49:51;20.20;99.90
22288;DHT22;11312;51.464;6.968;2023-10-19T10:54:56;19.70;99.90
22288;DHT22;11312;51.464;6.968;2023-10-19T10:57:22;19.70;99.90
22288;DHT22;11312;51.464;6.968;2023-10-19T11:00:07;20.30;99.90
22288;DHT22;11312;51.464;6.968;2023-10-19T11:02:41;20.30;99.90
22288;DHT22;11312;51.464;6.968;2023-10-19T11:05:16;19.80;99.90
22288;DHT22;11312;51.464;6.968;2023-10-19T11:10:35;19.10;99.90
22288;DHT22;11312;51.464;6.968;2023-10-19T11:13:10;18.90;99.90
22288;DHT22;11312;51.464;6.968;2023-10-19T11:15:47;18.90;99.90
22288;DHT22;11312;51.464;6.968;2023-10-19T11:18:40;18.90;99.90
22288;DHT22;11312;51.464;6.968;2023-10-19T11:21:10;18.80;99.90
22288;DHT22;11312;51.464;6.968;2023-10-19T11:23:47;19.10;99.90
22288;DHT22;11312;51.464;6.968;2023-10-19T11:26:16;19.30;99.90
22288;DHT22;11312;51.464;6.968;2023-10-19T11:28:42;20.10;99.90
22288;DHT22;11312;51.464;6.968;2023-10-19T11:31:18;20.20;99.90
22288;DHT22;11312;51.464;6.968;2023-10-19T11:33:47;21.40;99.90
22288;DHT22;11312;51.464;6.968;2023-10-19T11:36:20;21.50;99.90
22288;DHT22;11312;51.464;6.968;2023-10-19T11:38:50;22.20;99.90
22288;DHT22;11312;51.464;6.968;2023-10-19T11:41:20;22.50;99.90
22288;DHT22;11312;51.464;6.968;2023-10-19T11:43:46;23.00;99.90
22288;DHT22;11312;51.464;6.968;2023-10-19T11:46:13;22.60;99.90
22288;DHT22;11312;51.464;6.968;2023-10-19T11:48:43;23.90;99.90
22288;DHT22;11312;51.464;6.968;2023-10-19T11:51:09;22.50;99.90
22288;DHT22;11312;51.464;6.968;2023-10-19T11:53:40;20.70;99.90
22288;DHT22;11312;51.464;6.968;2023-10-19T11:56:07;19.90;99.90
22288;DHT22;11312;51.464;6.968;2023-10-19T11:58:33;19.50;99.90
22288;DHT22;11312;51.464;6.968;2023-10-19T12:01:09;19.00;99.90
22288;DHT22;11312;51.464;6.968;2023-10-19T12:03:37;18.80;99.90
22288;DHT22;11312;51.464;6.968;2023-10-19T12:06:05;18.70;99.90
22288;DHT22;11312;51.464;6.968;2023-10-19T12:08:34;18.60;99.90
22288;DHT22;11312;51.464;6.968;2023-10-19T12:11:01;18.60;99.90
22288;DHT22;11312;51.464;6.968;2023-10-19T12:13:28;18.50;99.90
22288;DHT22;11312;51.464;6.968;2023-10-19T12:15:54;18.40;99.90
22288;DHT22;11312;51.464;6.968;2023-10-19T12:18:23;18.40;99.90
22288;DHT22;11312;51.464;6.968;2023-10-19T12:20:51;18.40;99.90
22288;DHT22;11312;51.464;6.968;2023-10-19T12:23:22;18.40;99.90
22288;DHT22;11312;51.464;6.968;2023-10-19T12:25:49;18.50;99.90
22288;DHT22;11312;51.464;6.968;2023-10-19T12:28:14;18.60;99.90
22288;DHT22;11312;51.464;6.968;2023-10-19T12:30:41;18.70;99.90
22288;DHT22;11312;51.464;6.968;2023-10-19T12:33:07;18.70;99.90
22288;DHT22;11312;51.464;6.968;2023-10-19T12:35:38;18.80;99.90
22288;DHT22;11312;51.464;6.968;2023-10-19T12:38:22;18.90;99.90
22288;DHT22;11312;51.464;6.968;2023-10-19T12:40:49;18.80;99.90
22288;DHT22;11312;51.464;6.968;2023-10-19T12:43:20;18.60;99.90
22288;DHT22;11312;51.464;6.968;2023-10-19T12:45:48;18.50;99.90
22288;DHT22;11312;51.464;6.968;2023-10-19T12:48:19;18.50;99.90
22288;DHT22;11312;51.464;6.968;2023-10-19T12:50:46;18.40;99.90
22288;DHT22;11312;51.464;6.968;2023-10-19T12:53:12;18.30;99.90
22288;DHT22;11312;51.464;6.968;2023-10-19T12:55:39;18.30;99.90
22288;DHT22;11312;51.464;6.968;2023-10-19T12:58:05;18.20;99.90
22288;DHT22;11312;51.464;6.968;2023-10-19T13:00:35;18.20;99.90
22288;DHT22;11312;51.464;6.968;2023-10-19T13:03:10;18.20;99.90
22288;DHT22;11312;51.464;6.968;2023-10-19T13:05:39;18.20;99.90
22288;DHT22;11312;51.464;6.968;2023-10-19T13:08:12;18.40;99.90
22288;DHT22;11312;51.464;6.968;2023-10-19T13:10:39;18.30;99.90
22288;DHT22;11312;51.464;6.968;2023-10-19T13:13:09;18.30;99.90
22288;DHT22;11312;51.464;6.968;2023-10-19T13:15:39;18.30;99.90
22288;DHT22;11312;51.464;6.968;2023-10-19T13:18:06;18.20;99.90
22288;DHT22;11312;51.464;6.968;2023-10-19T13:20:33;18.20;99.90
22288;DHT22;11312;51.464;6.968;2023-10-19T13:23:08;18.20;99.90
22288;DHT22;11312;51.464;6.968;2023-10-19T13:25:37;18.10;99.90
22288;DHT22;11312;51.464;6.968;2023-10-19T13:28:16;18.30;99.90
22288;DHT22;11312;51.464;6.968;2023-10-19T13:30:50;18.20;99.90
22288;DHT22;11312;51.464;6.968;2023-10-19T13:33:17;18.20;99.90
22288;DHT22;11312;51.464;6.968;2023-10-19T13:35:44;18.10;99.90
22288;DHT22;11312;51.464;6.968;2023-10-19T13:38:11;18.10;99.90
22288;DHT22;11312;51.464;6.968;2023-10-19T13:40:40;18.00;99.90
22288;DHT22;11312;51.464;6.968;2023-10-19T13:43:07;18.00;99.90
22288;DHT22;11312;51.464;6.968;2023-10-19T13:45:34;18.00;99.90
22288;DHT22;11312;51.464;6.968;2023-10-19T13:48:04;17.90;99.90
22288;DHT22;11312;51.464;6.968;2023-10-19T13:50:31;17.90;99.90
22288;DHT22;11312;51.464;6.968;2023-10-19T13:52:58;17.90;99.90
22288;DHT22;11312;51.464;6.968;2023-10-19T13:55:26;17.90;99.90
22288;DHT22;11312;51.464;6.968;2023-10-19T13:57:52;17.80;99.90
22288;DHT22;11312;51.464;6.968;2023-10-19T14:00:19;17.90;99.90
22288;DHT22;11312;51.464;6.968;2023-10-19T14:02:52;17.80;99.90
22288;DHT22;11312;51.464;6.968;2023-10-19T14:05:18;17.70;99.90
22288;DHT22;11312;51.464;6.968;2023-10-19T14:07:45;17.80;99.90
22288;DHT22;11312;51.464;6.968;2023-10-19T14:10:13;17.80;99.90
22288;DHT22;11312;51.464;6.968;2023-10-19T14:12:39;17.90;99.90
22288;DHT22;11312;51.464;6.968;2023-10-19T14:15:17;17.90;99.90
22288;DHT22;11312;51.464;6.968;2023-10-19T14:17:44;17.90;99.90
22288;DHT22;11312;51.464;6.968;2023-10-19T14:20:16;17.90;99.90
22288;DHT22;11312;51.464;6.968;2023-10-19T14:22:46;17.90;99.90
22288;DHT22;11312;51.464;6.968;2023-10-19T14:25:14;18.00;99.90
22288;DHT22;11312;51.464;6.968;2023-10-19T14:27:40;17.80;99.90
22288;DHT22;11312;51.464;6.968;2023-10-19T14:30:14;17.70;99.90
22288;DHT22;11312;51.464;6.968;2023-10-19T14:32:46;17.70;99.90
22288;DHT22;11312;51.464;6.968;2023-10-19T14:35:17;17.70;99.90
22288;DHT22;11312;51.464;6.968;2023-10-19T14:37:44;17.80;99.90
22288;DHT22;11312;51.464;6.968;2023-10-19T14:40:11;17.80;99.90
22288;DHT22;11312;51.464;6.968;2023-10-19T14:42:38;17.70;99.90
22288;DHT22;11312;51.464;6.968;2023-10-19T14:45:08;17.70;99.90
22288;DHT22;11312;51.464;6.968;2023-10-19T14:47:38;17.70;99.90
22288;DHT22;11312;51.464;6.968;2023-10-19T14:50:10;17.60;99.90
22288;DHT22;11312;51.464;6.968;2023-10-19T14:52:37;17.60;99.90
22288;DHT22;11312;51.464;6.968;2023-10-19T14:55:05;17.60;99.90
22288;DHT22;11312;51.464;6.968;2023-10-19T14:57:33;17.50;99.90
22288;DHT22;11312;51.464;6.968;2023-10-19T14:59:59;17.50;99.90
22288;DHT22;11312;51.464;6.968;2023-10-19T15:02:34;17.60;99.90
22288;DHT22;11312;51.464;6.968;2023-10-19T15:05:01;17.80;99.90
22288;DHT22;11312;51.464;6.968;2023-10-19T15:07:30;18.00;99.90
22288;DHT22;11312;51.464;6.968;2023-10-19T15:09:55;18.00;99.90
22288;DHT22;11312;51.464;6.968;2023-10-19T15:12:21;18.00;99.90
22288;DHT22;11312;51.464;6.968;2023-10-19T15:14:46;18.30;99.90
22288;DHT22;11312;51.464;6.968;2023-10-19T15:17:12;18.40;99.90
22288;DHT22;11312;51.464;6.968;2023-10-19T15:19:37;18.60;99.90
22288;DHT22;11312;51.464;6.968;2023-10-19T15:22:03;18.40;99.90
22288;DHT22;11312;51.464;6.968;2023-10-19T15:24:29;18.10;99.90
22288;DHT22;11312;51.464;6.968;2023-10-19T15:26:55;18.10;99.90
22288;DHT22;11312;51.464;6.968;2023-10-19T15:29:21;18.00;99.90
22288;DHT22;11312;51.464;6.968;2023-10-19T15:31:47;18.30;99.90
22288;DHT22;11312;51.464;6.968;2023-10-19T15:34:13;18.20;99.90
22288;DHT22;11312;51.464;6.968;2023-10-19T15:36:40;17.90;99.90
22288;DHT22;11312;51.464;6.968;2023-10-19T15:39:06;18.00;99.90
22288;DHT22;11312;51.464;6.968;2023-10-19T15:41:36;18.30;99.90
22288;DHT22;11312;51.464;6.968;2023-10-19T15:44:01;18.50;99.90
22288;DHT22;11312;51.464;6.968;2023-10-19T15:46:28;18.60;99.90
22288;DHT22;11312;51.464;6.968;2023-10-19T15:48:55;18.90;99.90
22288;DHT22;11312;51.464;6.968;2023-10-19T15:51:22;18.60;99.90